createdAt,value
2017-05-11T00:00:32.546Z,1001.07
2017-05-11T00:01:43.554Z,1001.07
2017-05-11T00:02:54.560Z,1001.07
2017-05-11T00:04:05.604Z,1001.08
2017-05-11T00:05:16.604Z,1001.07
2017-05-11T00:06:27.811Z,1001.07
2017-05-11T00:07:38.830Z,1001.08
2017-05-11T00:08:49.831Z,1001.06
2017-05-11T00:10:01.039Z,1001.05
2017-05-11T00:11:12.096Z,1001.06
2017-05-11T00:12:23.294Z,1000.97
2017-05-11T00:13:34.303Z,1000.99
2017-05-11T00:14:45.301Z,1001
2017-05-11T00:15:56.304Z,1000.9
2017-05-11T00:17:07.305Z,1000.94
2017-05-11T00:18:18.339Z,1000.96
2017-05-11T00:19:29.340Z,1000.97
2017-05-11T00:20:40.392Z,1000.92
2017-05-11T00:21:51.411Z,1000.95
2017-05-11T00:23:02.421Z,1000.93
2017-05-11T00:24:13.425Z,1000.94
2017-05-11T00:25:24.634Z,1000.86
2017-05-11T00:26:35.837Z,1000.87
2017-05-11T00:27:46.856Z,1000.87
2017-05-11T00:28:57.865Z,1000.85
2017-05-11T00:30:09.077Z,1000.82
2017-05-11T00:31:20.330Z,1000.81
2017-05-11T00:32:31.536Z,1000.79
2017-05-11T00:33:42.573Z,1000.77
2017-05-11T00:34:53.585Z,1000.76
2017-05-11T00:36:04.991Z,1000.72
2017-05-11T00:37:16.231Z,1000.74
2017-05-11T00:38:27.235Z,1000.71
2017-05-11T00:39:38.236Z,1000.67
2017-05-11T00:40:49.259Z,1000.7
2017-05-11T00:42:00.323Z,1000.67
2017-05-11T00:43:11.324Z,1000.63
2017-05-11T00:44:22.334Z,1000.61
2017-05-11T00:45:33.342Z,1000.64
2017-05-11T00:46:44.350Z,1000.61
2017-05-11T00:47:55.608Z,1000.61
2017-05-11T00:49:06.608Z,1000.58
2017-05-11T00:50:17.608Z,1000.55
2017-05-11T00:51:28.620Z,1000.56
2017-05-11T00:52:39.622Z,1000.51
2017-05-11T00:53:50.826Z,1000.48
2017-05-11T00:55:01.831Z,1000.5
2017-05-11T00:56:12.828Z,1000.46
2017-05-11T00:57:24.040Z,1000.47
2017-05-11T00:58:35.041Z,1000.44
2017-05-11T00:59:46.048Z,1000.42
2017-05-11T01:00:57.080Z,1000.41
2017-05-11T01:02:08.084Z,1000.36
2017-05-11T01:03:19.087Z,1000.38
2017-05-11T01:04:30.284Z,1000.34
2017-05-11T01:05:41.348Z,1000.35
2017-05-11T01:06:52.547Z,1000.3
2017-05-11T01:08:03.756Z,1000.26
2017-05-11T01:09:14.778Z,1000.24
2017-05-11T01:10:25.787Z,1000.26
2017-05-11T01:11:36.792Z,1000.25
2017-05-11T01:12:47.794Z,1000.26
2017-05-11T01:13:59.013Z,1000.19
2017-05-11T01:15:10.275Z,1000.2
2017-05-11T01:16:21.288Z,1000.14
2017-05-11T01:17:32.284Z,1000.16
2017-05-11T01:18:43.273Z,1000.11
2017-05-11T01:19:54.328Z,1000.07
2017-05-11T01:21:05.327Z,1000.06
2017-05-11T01:22:16.324Z,1000.04
2017-05-11T01:23:27.540Z,1000.03
2017-05-11T01:24:38.585Z,1000
2017-05-11T01:25:49.650Z,1000.01
2017-05-11T01:27:00.660Z,1000.05
2017-05-11T01:28:11.679Z,1000
2017-05-11T01:29:22.685Z,1000.02
2017-05-11T01:30:33.892Z,1000.01
2017-05-11T01:31:44.897Z,1000.04
2017-05-11T01:32:55.889Z,999.96
2017-05-11T01:34:06.935Z,999.95
2017-05-11T01:35:17.948Z,999.96
2017-05-11T01:36:28.993Z,999.93
2017-05-11T01:37:40.207Z,999.93
2017-05-11T01:38:51.223Z,999.92
2017-05-11T01:40:02.428Z,999.93
2017-05-11T01:41:13.434Z,999.9
2017-05-11T01:42:24.432Z,999.89
2017-05-11T01:43:35.448Z,999.85
2017-05-11T01:44:46.654Z,999.84
2017-05-11T01:45:57.652Z,999.83
2017-05-11T01:47:08.718Z,999.82
2017-05-11T01:48:19.923Z,999.78
2017-05-11T01:49:30.926Z,999.72
2017-05-11T01:50:41.932Z,999.74
2017-05-11T01:51:52.951Z,999.68
2017-05-11T01:53:04.216Z,999.66
2017-05-11T01:54:15.228Z,999.64
2017-05-11T01:55:26.241Z,999.64
2017-05-11T01:56:37.443Z,999.6
2017-05-11T01:57:48.449Z,999.61
2017-05-11T01:58:59.672Z,999.56
2017-05-11T02:00:10.683Z,999.58
2017-05-11T02:01:21.884Z,999.57
2017-05-11T02:02:32.886Z,999.53
2017-05-11T02:03:43.893Z,999.52
2017-05-11T02:04:54.922Z,999.52
2017-05-11T02:06:05.927Z,999.52
2017-05-11T02:07:16.931Z,999.51
2017-05-11T02:08:27.968Z,999.48
2017-05-11T02:09:38.988Z,999.43
2017-05-11T02:10:50.253Z,999.42
2017-05-11T02:12:01.265Z,999.4
2017-05-11T02:13:12.277Z,999.39
2017-05-11T02:14:23.284Z,999.4
2017-05-11T02:15:34.501Z,999.36
2017-05-11T02:16:45.508Z,999.4
2017-05-11T02:17:56.521Z,999.35
2017-05-11T02:19:07.533Z,999.33
2017-05-11T02:20:18.993Z,999.36
2017-05-11T02:21:29.992Z,999.28
2017-05-11T02:22:41.002Z,999.28
2017-05-11T02:23:52.025Z,999.3
2017-05-11T02:25:03.230Z,999.22
2017-05-11T02:26:14.225Z,999.26
2017-05-11T02:27:25.437Z,999.23
2017-05-11T02:28:36.440Z,999.23
2017-05-11T02:29:47.446Z,999.25
2017-05-11T02:30:58.498Z,999.18
2017-05-11T02:32:09.710Z,999.16
2017-05-11T02:33:20.713Z,999.13
2017-05-11T02:34:31.720Z,999.15
2017-05-11T02:35:42.726Z,999.13
2017-05-11T02:36:53.736Z,999.09
2017-05-11T02:38:04.741Z,999.1
2017-05-11T02:39:15.945Z,999.08
2017-05-11T02:40:26.961Z,999.04
2017-05-11T02:41:38.010Z,999.08
2017-05-11T02:42:49.003Z,999.08
2017-05-11T02:44:00.394Z,999.09
2017-05-11T02:45:11.603Z,999.07
2017-05-11T02:46:22.607Z,999.03
2017-05-11T02:47:33.603Z,999.02
2017-05-11T02:48:44.607Z,999.03
2017-05-11T02:49:55.624Z,998.96
2017-05-11T02:51:06.615Z,999
2017-05-11T02:52:17.669Z,998.95
2017-05-11T02:53:28.869Z,998.98
2017-05-11T02:54:40.071Z,998.98
2017-05-11T02:55:51.074Z,998.89
2017-05-11T02:57:02.270Z,998.88
2017-05-11T02:58:13.336Z,998.89
2017-05-11T02:59:24.350Z,998.86
2017-05-11T03:00:35.355Z,998.84
2017-05-11T03:01:46.568Z,998.85
2017-05-11T03:02:57.780Z,998.85
2017-05-11T03:04:08.781Z,998.81
2017-05-11T03:05:19.783Z,998.83
2017-05-11T03:06:30.790Z,998.82
2017-05-11T03:07:41.790Z,998.81
2017-05-11T03:08:52.791Z,998.82
2017-05-11T03:10:03.790Z,998.8
2017-05-11T03:11:15.197Z,998.78
2017-05-11T03:12:26.209Z,998.74
2017-05-11T03:13:37.422Z,998.75
2017-05-11T03:14:48.426Z,998.7
2017-05-11T03:15:59.525Z,998.68
2017-05-11T03:17:10.742Z,998.68
2017-05-11T03:18:22.160Z,998.62
2017-05-11T03:19:33.159Z,998.56
2017-05-11T03:20:44.367Z,998.56
2017-05-11T03:21:55.370Z,998.51
2017-05-11T03:23:06.375Z,998.48
2017-05-11T03:24:17.376Z,998.5
2017-05-11T03:25:28.391Z,998.47
2017-05-11T03:26:39.387Z,998.45
2017-05-11T03:27:50.391Z,998.46
2017-05-11T03:29:01.584Z,998.45
2017-05-11T03:30:12.843Z,998.44
2017-05-11T03:31:23.839Z,998.42
2017-05-11T03:32:35.043Z,998.44
2017-05-11T03:33:46.248Z,998.48
2017-05-11T03:34:57.261Z,998.45
2017-05-11T03:36:08.462Z,998.41
2017-05-11T03:37:19.475Z,998.43
2017-05-11T03:38:30.691Z,998.42
2017-05-11T03:39:41.696Z,998.38
2017-05-11T03:40:52.967Z,998.43
2017-05-11T03:42:03.980Z,998.4
2017-05-11T03:43:14.972Z,998.41
2017-05-11T03:44:25.968Z,998.43
2017-05-11T03:45:36.958Z,998.43
2017-05-11T03:46:48.555Z,998.4
2017-05-11T03:47:59.800Z,998.38
2017-05-11T03:49:10.803Z,998.34
2017-05-11T03:50:21.811Z,998.33
2017-05-11T03:51:32.849Z,998.32
2017-05-11T03:52:44.051Z,998.33
2017-05-11T03:53:55.066Z,998.35
2017-05-11T03:55:06.071Z,998.3
2017-05-11T03:56:17.275Z,998.31
2017-05-11T03:57:28.485Z,998.32
2017-05-11T03:58:39.487Z,998.3
2017-05-11T03:59:50.478Z,998.28
2017-05-11T04:01:01.532Z,998.26
2017-05-11T04:02:12.779Z,998.26
2017-05-11T04:03:23.783Z,998.27
2017-05-11T04:04:34.786Z,998.26
2017-05-11T04:05:45.824Z,998.29
2017-05-11T04:06:56.836Z,998.24
2017-05-11T04:08:08.105Z,998.25
2017-05-11T04:09:19.310Z,998.23
2017-05-11T04:10:30.318Z,998.24
2017-05-11T04:11:41.329Z,998.24
2017-05-11T04:12:52.331Z,998.2
2017-05-11T04:14:03.595Z,998.19
2017-05-11T04:15:14.602Z,998.21
2017-05-11T04:16:25.600Z,998.17
2017-05-11T04:17:36.605Z,998.13
2017-05-11T04:18:47.596Z,998.2
2017-05-11T04:19:58.608Z,998.18
2017-05-11T04:21:09.616Z,998.15
2017-05-11T04:22:20.850Z,998.1
2017-05-11T04:23:31.863Z,998.09
2017-05-11T04:24:42.919Z,998.09
2017-05-11T04:25:53.926Z,998.06
2017-05-11T04:27:04.923Z,998.08
2017-05-11T04:28:15.917Z,998.05
2017-05-11T04:29:26.927Z,998.02
2017-05-11T04:30:37.938Z,998.02
2017-05-11T04:31:48.941Z,997.98
2017-05-11T04:33:00.143Z,998.03
2017-05-11T04:34:11.204Z,998.07
2017-05-11T04:35:22.257Z,998.03
2017-05-11T04:36:33.262Z,998.03
2017-05-11T04:37:44.263Z,998.02
2017-05-11T04:38:55.469Z,997.99
2017-05-11T04:40:06.473Z,998
2017-05-11T04:41:17.475Z,998
2017-05-11T04:42:28.473Z,997.99
2017-05-11T04:43:39.676Z,998
2017-05-11T04:44:50.730Z,998.02
2017-05-11T04:46:01.932Z,997.97
2017-05-11T04:47:13.361Z,997.93
2017-05-11T04:48:24.342Z,997.93
2017-05-11T04:49:35.357Z,997.91
2017-05-11T04:50:46.356Z,997.91
2017-05-11T04:51:57.552Z,997.9
2017-05-11T04:53:08.759Z,997.89
2017-05-11T04:54:19.964Z,997.88
2017-05-11T04:55:31.034Z,997.83
2017-05-11T04:56:42.038Z,997.86
2017-05-11T04:57:53.043Z,997.9
2017-05-11T04:59:04.040Z,997.93
2017-05-11T05:00:15.055Z,997.94
2017-05-11T05:01:26.054Z,997.88
2017-05-11T05:02:37.108Z,997.92
2017-05-11T05:03:48.313Z,997.89
2017-05-11T05:04:59.316Z,997.88
2017-05-11T05:06:10.379Z,997.82
2017-05-11T05:07:21.380Z,997.85
2017-05-11T05:08:32.387Z,997.82
2017-05-11T05:09:43.413Z,997.82
2017-05-11T05:10:54.639Z,997.84
2017-05-11T05:12:05.652Z,997.84
2017-05-11T05:13:16.667Z,997.87
2017-05-11T05:14:27.888Z,997.86
2017-05-11T05:15:38.882Z,997.92
2017-05-11T05:16:49.889Z,997.93
2017-05-11T05:18:00.891Z,997.89
2017-05-11T05:19:11.899Z,997.87
2017-05-11T05:20:22.899Z,997.81
2017-05-11T05:21:33.902Z,997.77
2017-05-11T05:22:44.909Z,997.76
2017-05-11T05:23:55.970Z,997.72
2017-05-11T05:25:06.974Z,997.72
2017-05-11T05:26:17.982Z,997.72
2017-05-11T05:27:28.990Z,997.73
2017-05-11T05:28:40.201Z,997.73
2017-05-11T05:29:51.202Z,997.67
2017-05-11T05:31:02.202Z,997.7
2017-05-11T05:32:13.212Z,997.71
2017-05-11T05:33:24.266Z,997.68
2017-05-11T05:34:35.481Z,997.65
2017-05-11T05:35:46.491Z,997.69
2017-05-11T05:36:57.510Z,997.66
2017-05-11T05:38:08.526Z,997.66
2017-05-11T05:39:19.542Z,997.64
2017-05-11T05:40:30.808Z,997.62
2017-05-11T05:41:41.827Z,997.66
2017-05-11T05:42:52.836Z,997.72
2017-05-11T05:44:03.890Z,997.66
2017-05-11T05:45:14.907Z,997.71
2017-05-11T05:46:25.927Z,997.72
2017-05-11T05:47:36.928Z,997.71
2017-05-11T05:48:47.949Z,997.73
2017-05-11T05:49:58.960Z,997.7
2017-05-11T05:51:10.157Z,997.66
2017-05-11T05:52:21.151Z,997.66
2017-05-11T05:53:32.162Z,997.67
2017-05-11T05:54:43.218Z,997.64
2017-05-11T05:55:54.422Z,997.62
2017-05-11T05:57:05.426Z,997.68
2017-05-11T05:58:16.663Z,997.75
2017-05-11T05:59:27.674Z,997.75
2017-05-11T06:00:38.889Z,997.74
2017-05-11T06:01:49.884Z,997.77
2017-05-11T06:03:00.884Z,997.78
2017-05-11T06:04:11.926Z,997.79
2017-05-11T06:05:22.983Z,997.75
2017-05-11T06:06:33.992Z,997.73
2017-05-11T06:07:45.009Z,997.77
2017-05-11T06:08:56.016Z,997.73
2017-05-11T06:10:07.028Z,997.77
2017-05-11T06:11:18.061Z,997.75
2017-05-11T06:12:29.078Z,997.72
2017-05-11T06:13:40.308Z,997.68
2017-05-11T06:14:51.329Z,997.72
2017-05-11T06:16:02.392Z,997.72
2017-05-11T06:17:13.408Z,997.7
2017-05-11T06:18:24.412Z,997.74
2017-05-11T06:19:35.429Z,997.69
2017-05-11T06:20:46.483Z,997.68
2017-05-11T06:21:57.508Z,997.66
2017-05-11T06:23:08.733Z,997.67
2017-05-11T06:24:19.753Z,997.66
2017-05-11T06:25:30.980Z,997.68
2017-05-11T06:26:42.198Z,997.69
2017-05-11T06:27:53.212Z,997.68
2017-05-11T06:29:04.237Z,997.76
2017-05-11T06:30:15.259Z,997.73
2017-05-11T06:31:26.477Z,997.76
2017-05-11T06:32:37.500Z,997.8
2017-05-11T06:33:48.569Z,997.85
2017-05-11T06:34:59.590Z,997.8
2017-05-11T06:36:10.606Z,997.78
2017-05-11T06:37:21.616Z,997.71
2017-05-11T06:38:32.633Z,997.72
2017-05-11T06:39:43.665Z,997.79
2017-05-11T06:40:54.881Z,997.8
2017-05-11T06:42:05.900Z,997.82
2017-05-11T06:43:16.973Z,997.83
2017-05-11T06:44:28.004Z,997.81
2017-05-11T06:45:39.028Z,997.83
2017-05-11T06:46:50.038Z,997.84
2017-05-11T06:48:01.061Z,997.86
2017-05-11T06:49:12.080Z,997.89
2017-05-11T06:50:23.104Z,997.88
2017-05-11T06:51:34.127Z,997.82
2017-05-11T06:52:45.152Z,997.85
2017-05-11T06:53:56.235Z,997.86
2017-05-11T06:55:07.279Z,997.87
2017-05-11T06:56:18.310Z,997.88
2017-05-11T06:57:29.530Z,997.9
2017-05-11T06:58:40.548Z,997.91
2017-05-11T06:59:51.574Z,997.87
2017-05-11T07:01:02.606Z,997.87
2017-05-11T07:02:13.631Z,997.83
2017-05-11T07:03:24.658Z,997.83
2017-05-11T07:04:35.770Z,997.83
2017-05-11T07:05:46.796Z,997.83
2017-05-11T07:06:57.824Z,997.8
2017-05-11T07:08:09.056Z,997.79
2017-05-11T07:09:20.279Z,997.82
2017-05-11T07:10:31.514Z,997.79
2017-05-11T07:11:42.538Z,997.8
2017-05-11T07:12:53.780Z,997.8
2017-05-11T07:14:04.805Z,997.85
2017-05-11T07:15:15.905Z,997.9
2017-05-11T07:16:26.934Z,997.89
2017-05-11T07:17:37.952Z,997.9
2017-05-11T07:18:48.973Z,997.96
2017-05-11T07:19:59.993Z,997.92
2017-05-11T07:21:11.070Z,997.94
2017-05-11T07:22:22.151Z,997.94
2017-05-11T07:23:33.171Z,997.92
2017-05-11T07:24:44.198Z,997.97
2017-05-11T07:25:55.427Z,997.92
2017-05-11T07:27:06.460Z,997.95
2017-05-11T07:28:17.484Z,997.98
2017-05-11T07:29:28.509Z,997.95
2017-05-11T07:30:39.559Z,997.85
2017-05-11T07:31:50.787Z,997.82
2017-05-11T07:33:01.811Z,997.84
2017-05-11T07:34:12.853Z,997.88
2017-05-11T07:35:23.884Z,997.88
2017-05-11T07:36:34.910Z,997.81
2017-05-11T07:37:45.933Z,997.85
2017-05-11T07:38:57.213Z,997.88
2017-05-11T07:40:08.240Z,997.88
2017-05-11T07:41:19.459Z,997.86
2017-05-11T07:42:30.490Z,997.89
2017-05-11T07:43:41.513Z,997.98
2017-05-11T07:44:52.530Z,998.02
2017-05-11T07:46:03.550Z,998.16
2017-05-11T07:47:14.593Z,998.26
2017-05-11T07:48:26.079Z,998.16
2017-05-11T07:49:37.101Z,998.12
2017-05-11T07:50:48.528Z,998.19
2017-05-11T07:51:59.755Z,997.96
2017-05-11T07:53:10.987Z,997.94
2017-05-11T07:54:22.022Z,998.11
2017-05-11T07:55:33.059Z,998.22
2017-05-11T07:56:44.085Z,998.47
2017-05-11T07:57:55.120Z,998.28
2017-05-11T07:59:06.206Z,998.24
2017-05-11T08:00:17.229Z,998.14
2017-05-11T08:01:28.240Z,998.04
2017-05-11T08:02:39.260Z,997.96
2017-05-11T08:03:50.287Z,997.73
2017-05-11T08:05:01.313Z,997.91
2017-05-11T08:06:12.534Z,997.89
2017-05-11T08:07:23.548Z,997.92
2017-05-11T08:08:34.568Z,998.02
2017-05-11T08:09:45.654Z,998.02
2017-05-11T08:10:56.890Z,997.98
2017-05-11T08:12:07.903Z,997.92
2017-05-11T08:13:18.930Z,997.82
2017-05-11T08:14:29.965Z,997.64
2017-05-11T08:15:40.996Z,997.47
2017-05-11T08:16:52.032Z,997.42
2017-05-11T08:18:03.050Z,997.38
2017-05-11T08:19:14.076Z,997.38
2017-05-11T08:20:25.100Z,997.35
2017-05-11T08:21:36.316Z,997.32
2017-05-11T08:22:47.546Z,997.34
2017-05-11T08:23:58.581Z,997.4
2017-05-11T08:25:09.646Z,997.41
2017-05-11T08:26:20.675Z,997.44
2017-05-11T08:27:31.716Z,997.49
2017-05-11T08:28:43.171Z,997.57
2017-05-11T08:29:54.204Z,997.47
2017-05-11T08:31:05.239Z,997.46
2017-05-11T08:32:16.265Z,997.45
2017-05-11T08:33:27.503Z,997.48
2017-05-11T08:34:38.527Z,997.42
2017-05-11T08:35:49.553Z,997.38
2017-05-11T08:37:00.575Z,997.32
2017-05-11T08:38:11.604Z,997.3
2017-05-11T08:39:22.634Z,997.27
2017-05-11T08:40:33.655Z,997.27
2017-05-11T08:41:44.889Z,997.23
2017-05-11T08:42:55.986Z,997.21
2017-05-11T08:44:07.030Z,997.18
2017-05-11T08:45:18.053Z,997.15
2017-05-11T08:46:29.091Z,997.14
2017-05-11T08:47:40.115Z,997.18
2017-05-11T08:48:51.154Z,997.16
2017-05-11T08:50:02.187Z,997.17
2017-05-11T08:51:13.216Z,997.22
2017-05-11T08:52:24.295Z,997.17
2017-05-11T08:53:35.316Z,997.21
2017-05-11T08:54:46.357Z,997.22
2017-05-11T08:55:57.376Z,997.23
2017-05-11T08:57:08.398Z,997.23
2017-05-11T08:58:19.832Z,997.21
2017-05-11T08:59:31.062Z,997.19
2017-05-11T09:00:42.095Z,997.15
2017-05-11T09:01:53.535Z,997.15
2017-05-11T09:03:04.829Z,997.17
2017-05-11T09:04:15.867Z,997.11
2017-05-11T09:05:27.297Z,997.11
2017-05-11T09:06:38.336Z,997.06
2017-05-11T09:07:49.361Z,997.07
2017-05-11T09:09:00.586Z,997.02
2017-05-11T09:10:11.664Z,997.01
2017-05-11T09:11:22.697Z,997.03
2017-05-11T09:12:33.931Z,997
2017-05-11T09:13:45.013Z,997.03
2017-05-11T09:14:56.054Z,997.02
2017-05-11T09:16:07.105Z,997.03
2017-05-11T09:17:18.337Z,997.05
2017-05-11T09:18:29.368Z,997.04
2017-05-11T09:19:40.388Z,997.03
2017-05-11T09:20:56.345Z,997.04
2017-05-11T09:22:12.176Z,997.02
2017-05-11T09:23:23.312Z,996.98
2017-05-11T09:24:37.259Z,996.98
2017-05-11T09:25:49.350Z,996.98
2017-05-11T09:27:00.640Z,996.98
2017-05-11T09:28:15.651Z,996.95
2017-05-11T09:29:29.617Z,996.99
2017-05-11T09:30:43.480Z,997
2017-05-11T09:31:57.426Z,996.98
2017-05-11T09:33:13.218Z,996.97
2017-05-11T09:34:27.067Z,996.96
2017-05-11T09:35:41.387Z,997.02
2017-05-11T09:36:52.419Z,997.1
2017-05-11T09:38:04.434Z,997.11
2017-05-11T09:39:15.881Z,997.11
2017-05-11T09:40:29.743Z,997.12
2017-05-11T09:41:40.818Z,997.12
2017-05-11T09:42:51.923Z,997.22
2017-05-11T09:44:05.573Z,997.32
2017-05-11T09:45:16.646Z,997.31
2017-05-11T09:46:27.722Z,997.35
2017-05-11T09:47:38.770Z,997.6
2017-05-11T09:48:49.806Z,997.72
2017-05-11T09:50:01.087Z,997.87
2017-05-11T09:51:12.201Z,998.03
2017-05-11T09:52:23.437Z,998.18
2017-05-11T09:53:34.562Z,998.36
2017-05-11T09:54:45.606Z,998.83
2017-05-11T09:55:56.747Z,999.13
2017-05-11T09:57:08.945Z,999.46
2017-05-11T09:58:20.086Z,999.72
2017-05-11T09:59:31.354Z,1000.06
2017-05-11T10:00:42.857Z,1000.47
2017-05-11T10:01:54.058Z,1000.99
2017-05-11T10:03:05.091Z,1001.39
2017-05-11T10:04:16.134Z,1001.65
2017-05-11T10:05:27.192Z,1001.79
2017-05-11T10:06:38.290Z,1002.03
2017-05-11T10:07:49.654Z,1002.21
2017-05-11T10:09:01.056Z,1002.03
2017-05-11T10:10:12.930Z,1001.71
2017-05-11T10:11:23.968Z,1001.95
2017-05-11T10:12:35.008Z,1001.54
2017-05-11T10:13:46.100Z,1001.17
2017-05-11T10:14:57.252Z,1001.2
2017-05-11T10:16:08.282Z,1001.32
2017-05-11T10:17:19.468Z,1000.87
2017-05-11T10:18:30.499Z,1000.47
2017-05-11T10:19:41.901Z,1000.55
2017-05-11T10:20:53.128Z,1000.8
2017-05-11T10:22:04.399Z,1000.64
2017-05-11T10:23:15.972Z,1000.5
2017-05-11T10:24:27.181Z,999.83
2017-05-11T10:25:40.164Z,998.81
2017-05-11T10:26:51.296Z,998.52
2017-05-11T10:28:02.391Z,997.86
2017-05-11T10:29:13.752Z,999.16
2017-05-11T10:30:25.963Z,999.78
2017-05-11T10:31:37.215Z,999.56
2017-05-11T10:32:48.458Z,999.48
2017-05-11T10:33:59.763Z,999.19
2017-05-11T10:35:13.330Z,998.95
2017-05-11T10:36:27.675Z,998.65
2017-05-11T10:37:38.705Z,998.6
2017-05-11T10:38:49.779Z,998.06
2017-05-11T10:40:00.809Z,997.67
2017-05-11T10:41:11.837Z,997.82
2017-05-11T10:42:22.865Z,997.73
2017-05-11T10:43:33.894Z,997.54
2017-05-11T10:44:44.965Z,997.45
2017-05-11T10:45:55.985Z,997.45
2017-05-11T10:47:07.019Z,997.44
2017-05-11T10:48:18.044Z,997.42
2017-05-11T10:49:29.089Z,997.21
2017-05-11T10:50:40.125Z,997.19
2017-05-11T10:51:51.156Z,997.17
2017-05-11T10:53:02.235Z,996.67
2017-05-11T10:54:13.266Z,996.87
2017-05-11T10:55:24.279Z,996.98
2017-05-11T10:56:35.502Z,997.06
2017-05-11T10:57:46.542Z,997.11
2017-05-11T10:58:57.610Z,997.09
2017-05-11T11:00:08.643Z,997.13
2017-05-11T11:01:19.717Z,997.2
2017-05-11T11:02:30.753Z,997.07
2017-05-11T11:03:41.785Z,997.22
2017-05-11T11:04:52.812Z,997.4
2017-05-11T11:06:04.043Z,997.52
2017-05-11T11:07:15.076Z,997.56
2017-05-11T11:08:26.301Z,997.64
2017-05-11T11:09:37.327Z,997.82
2017-05-11T11:10:48.615Z,997.86
2017-05-11T11:11:59.637Z,997.87
2017-05-11T11:13:10.858Z,997.94
2017-05-11T11:14:22.085Z,997.9
2017-05-11T11:15:33.122Z,997.74
2017-05-11T11:16:44.360Z,997.48
2017-05-11T11:17:55.400Z,997.4
2017-05-11T11:19:06.425Z,997.44
2017-05-11T11:20:17.455Z,997.53
2017-05-11T11:21:28.551Z,997.33
2017-05-11T11:22:39.568Z,997.38
2017-05-11T11:23:50.597Z,997.41
2017-05-11T11:25:01.613Z,997.44
2017-05-11T11:26:12.643Z,997.1
2017-05-11T11:27:23.667Z,996.86
2017-05-11T11:28:34.896Z,996.87
2017-05-11T11:29:45.912Z,996.67
2017-05-11T11:30:56.934Z,996.22
2017-05-11T11:32:08.210Z,995.84
2017-05-11T11:33:19.234Z,995.58
2017-05-11T11:34:30.252Z,995.46
2017-05-11T11:35:41.488Z,995.44
2017-05-11T11:36:52.566Z,995.39
2017-05-11T11:38:03.601Z,995.34
2017-05-11T11:39:14.823Z,995.22
2017-05-11T11:40:26.043Z,995.18
2017-05-11T11:41:37.265Z,995.09
2017-05-11T11:42:48.354Z,995.09
2017-05-11T11:43:59.383Z,995.02
2017-05-11T11:45:10.417Z,995.01
2017-05-11T11:46:21.443Z,995.02
2017-05-11T11:47:32.463Z,994.93
2017-05-11T11:48:43.486Z,994.93
2017-05-11T11:49:54.769Z,994.88
2017-05-11T11:51:05.830Z,994.86
2017-05-11T11:52:17.054Z,994.8
2017-05-11T11:53:28.138Z,994.77
2017-05-11T11:54:39.160Z,994.69
2017-05-11T11:55:50.603Z,994.77
2017-05-11T11:57:01.629Z,994.8
2017-05-11T11:58:12.859Z,994.85
2017-05-11T11:59:23.887Z,994.8
2017-05-11T12:00:34.923Z,994.81
2017-05-11T12:01:45.943Z,994.85
2017-05-11T12:02:56.955Z,994.83
2017-05-11T12:04:08.391Z,994.83
2017-05-11T12:05:19.434Z,994.84
2017-05-11T12:06:30.663Z,994.77
2017-05-11T12:07:41.687Z,994.78
2017-05-11T12:08:52.713Z,994.82
2017-05-11T12:10:03.740Z,994.79
2017-05-11T12:11:14.809Z,994.77
2017-05-11T12:12:25.835Z,994.76
2017-05-11T12:13:36.867Z,994.75
2017-05-11T12:14:47.899Z,994.73
2017-05-11T12:15:58.915Z,994.72
2017-05-11T12:17:09.943Z,994.7
2017-05-11T12:18:20.968Z,994.77
2017-05-11T12:19:31.985Z,994.74
2017-05-11T12:20:43.051Z,994.71
2017-05-11T12:21:54.082Z,994.74
2017-05-11T12:23:05.105Z,994.7
2017-05-11T12:24:16.125Z,994.65
2017-05-11T12:25:27.383Z,994.63
2017-05-11T12:26:38.394Z,994.66
2017-05-11T12:27:49.414Z,994.58
2017-05-11T12:29:00.431Z,994.65
2017-05-11T12:30:11.456Z,994.56
2017-05-11T12:31:22.517Z,994.48
2017-05-11T12:32:33.737Z,994.49
2017-05-11T12:33:44.970Z,994.52
2017-05-11T12:34:55.992Z,994.5
2017-05-11T12:36:07.025Z,994.53
2017-05-11T12:37:18.452Z,994.51
2017-05-11T12:38:29.485Z,994.44
2017-05-11T12:39:40.499Z,994.34
2017-05-11T12:40:51.518Z,994.36
2017-05-11T12:42:02.597Z,994.38
2017-05-11T12:43:13.614Z,994.35
2017-05-11T12:44:24.641Z,994.28
2017-05-11T12:45:35.667Z,994.3
2017-05-11T12:46:46.694Z,994.3
2017-05-11T12:47:57.715Z,994.27
2017-05-11T12:49:08.748Z,994.32
2017-05-11T12:50:19.769Z,994.3
2017-05-11T12:51:30.788Z,994.26
2017-05-11T12:52:41.861Z,994.27
2017-05-11T12:53:52.872Z,994.25
2017-05-11T12:55:03.883Z,994.22
2017-05-11T12:56:14.969Z,994.24
2017-05-11T12:57:26.388Z,994.2
2017-05-11T12:58:37.618Z,994.21
2017-05-11T12:59:48.827Z,994.26
2017-05-11T13:01:00.248Z,994.28
2017-05-11T13:02:11.664Z,994.22
2017-05-11T13:03:22.886Z,994.24
2017-05-11T13:04:34.111Z,994.19
2017-05-11T13:05:45.125Z,994.18
2017-05-11T13:06:56.151Z,994.07
2017-05-11T13:08:07.171Z,994.02
2017-05-11T13:09:18.188Z,993.99
2017-05-11T13:10:29.213Z,994
2017-05-11T13:11:40.439Z,993.97
2017-05-11T13:12:51.457Z,993.98
2017-05-11T13:14:02.508Z,994.02
2017-05-11T13:15:13.776Z,994.03
2017-05-11T13:16:24.784Z,993.99
2017-05-11T13:17:35.838Z,993.98
2017-05-11T13:18:47.262Z,993.97
2017-05-11T13:19:58.277Z,993.99
2017-05-11T13:21:09.294Z,993.92
2017-05-11T13:22:20.313Z,993.91
2017-05-11T13:23:31.335Z,993.92
2017-05-11T13:24:42.393Z,993.95
2017-05-11T13:25:53.412Z,993.9
2017-05-11T13:27:04.439Z,993.84
2017-05-11T13:28:15.464Z,993.8
2017-05-11T13:29:26.527Z,993.78
2017-05-11T13:30:37.557Z,993.88
2017-05-11T13:31:48.582Z,993.83
2017-05-11T13:32:59.602Z,993.79
2017-05-11T13:34:10.624Z,993.81
2017-05-11T13:35:21.736Z,993.85
2017-05-11T13:36:32.761Z,993.82
2017-05-11T13:37:43.786Z,993.84
2017-05-11T13:38:54.797Z,993.87
2017-05-11T13:40:05.818Z,993.9
2017-05-11T13:41:16.839Z,993.94
2017-05-11T13:42:27.903Z,993.9
2017-05-11T13:43:38.925Z,993.78
2017-05-11T13:44:49.948Z,993.83
2017-05-11T13:46:01.023Z,993.8
2017-05-11T13:47:12.040Z,993.79
2017-05-11T13:48:23.268Z,993.76
2017-05-11T13:49:34.294Z,993.76
2017-05-11T13:50:45.319Z,993.78
2017-05-11T13:51:56.353Z,993.75
2017-05-11T13:53:07.388Z,993.82
2017-05-11T13:54:18.610Z,993.75
2017-05-11T13:55:29.643Z,993.77
2017-05-11T13:56:40.948Z,993.71
2017-05-11T13:57:51.977Z,993.71
2017-05-11T13:59:03.197Z,993.76
2017-05-11T14:00:14.218Z,993.87
2017-05-11T14:01:25.237Z,993.84
2017-05-11T14:02:36.258Z,993.87
2017-05-11T14:03:47.284Z,993.89
2017-05-11T14:04:58.313Z,993.85
2017-05-11T14:06:09.339Z,993.77
2017-05-11T14:07:20.416Z,993.82
2017-05-11T14:08:31.435Z,993.83
2017-05-11T14:09:42.462Z,993.85
2017-05-11T14:10:53.497Z,993.79
2017-05-11T14:12:04.534Z,993.77
2017-05-11T14:13:15.546Z,993.73
2017-05-11T14:14:26.573Z,993.79
2017-05-11T14:15:37.594Z,993.79
2017-05-11T14:16:48.829Z,993.91
2017-05-11T14:17:59.843Z,993.87
2017-05-11T14:19:10.866Z,993.88
2017-05-11T14:20:21.882Z,993.83
2017-05-11T14:21:32.896Z,993.81
2017-05-11T14:22:43.911Z,993.8
2017-05-11T14:23:54.940Z,993.79
2017-05-11T14:25:06.217Z,993.83
2017-05-11T14:26:17.245Z,993.78
2017-05-11T14:27:28.273Z,993.83
2017-05-11T14:28:39.290Z,993.81
2017-05-11T14:29:50.704Z,993.85
2017-05-11T14:31:01.724Z,993.84
2017-05-11T14:32:12.973Z,993.79
2017-05-11T14:33:23.983Z,993.82
2017-05-11T14:34:35.039Z,993.79
2017-05-11T14:35:46.053Z,993.77
2017-05-11T14:36:57.074Z,993.73
2017-05-11T14:38:08.088Z,993.73
2017-05-11T14:39:19.166Z,993.66
2017-05-11T14:40:30.430Z,993.64
2017-05-11T14:41:41.461Z,993.62
2017-05-11T14:42:52.499Z,993.58
2017-05-11T14:44:03.520Z,993.63
2017-05-11T14:45:14.588Z,993.63
2017-05-11T14:46:25.599Z,993.62
2017-05-11T14:47:36.619Z,993.62